sensor_id;sensor_type;location;lat;lon;timestamp;P1;durP1;ratioP1;P2;durP2;ratioP2
12587;SDS011;6359;51.450;7.346;2023-02-04T00:00:07;22.67;;;5.00;;
12587;SDS011;6359;51.450;7.346;2023-02-04T00:02:38;14.57;;;3.83;;
12587;SDS011;6359;51.450;7.346;2023-02-04T00:05:05;22.13;;;4.63;;
12587;SDS011;6359;51.450;7.346;2023-02-04T00:07:33;25.02;;;5.82;;
12587;SDS011;6359;51.450;7.346;2023-02-04T00:10:00;21.98;;;4.65;;
12587;SDS011;6359;51.450;7.346;2023-02-04T00:12:29;18.40;;;4.43;;
12587;SDS011;6359;51.450;7.346;2023-02-04T00:14:56;29.40;;;4.90;;
12587;SDS011;6359;51.450;7.346;2023-02-04T00:17:23;21.73;;;4.82;;
12587;SDS011;6359;51.450;7.346;2023-02-04T00:22:39;21.05;;;4.97;;
12587;SDS011;6359;51.450;7.346;2023-02-04T00:25:07;28.75;;;5.15;;
12587;SDS011;6359;51.450;7.346;2023-02-04T00:27:35;32.97;;;4.68;;
12587;SDS011;6359;51.450;7.346;2023-02-04T00:30:02;24.77;;;4.20;;
12587;SDS011;6359;51.450;7.346;2023-02-04T00:32:30;23.02;;;4.22;;
12587;SDS011;6359;51.450;7.346;2023-02-04T00:34:57;26.73;;;4.57;;
12587;SDS011;6359;51.450;7.346;2023-02-04T00:37:25;31.13;;;4.75;;
12587;SDS011;6359;51.450;7.346;2023-02-04T00:39:53;29.10;;;5.25;;
12587;SDS011;6359;51.450;7.346;2023-02-04T00:42:20;32.90;;;4.80;;
12587;SDS011;6359;51.450;7.346;2023-02-04T00:44:48;35.80;;;4.70;;
12587;SDS011;6359;51.450;7.346;2023-02-04T00:47:15;21.25;;;3.97;;
12587;SDS011;6359;51.450;7.346;2023-02-04T00:49:42;24.10;;;4.22;;
12587;SDS011;6359;51.450;7.346;2023-02-04T00:52:09;23.92;;;4.40;;
12587;SDS011;6359;51.450;7.346;2023-02-04T00:54:36;25.38;;;4.68;;
12587;SDS011;6359;51.450;7.346;2023-02-04T00:57:04;27.50;;;4.53;;
12587;SDS011;6359;51.450;7.346;2023-02-04T00:59:31;28.40;;;4.75;;
12587;SDS011;6359;51.450;7.346;2023-02-04T01:01:59;27.35;;;4.60;;
12587;SDS011;6359;51.450;7.346;2023-02-04T01:04:26;20.50;;;3.75;;
12587;SDS011;6359;51.450;7.346;2023-02-04T01:06:54;29.52;;;5.22;;
12587;SDS011;6359;51.450;7.346;2023-02-04T01:09:21;26.25;;;5.05;;
12587;SDS011;6359;51.450;7.346;2023-02-04T01:11:48;27.15;;;4.32;;
12587;SDS011;6359;51.450;7.346;2023-02-04T01:14:15;22.60;;;4.95;;
12587;SDS011;6359;51.450;7.346;2023-02-04T01:16:42;19.23;;;4.63;;
12587;SDS011;6359;51.450;7.346;2023-02-04T01:19:11;27.92;;;4.50;;
12587;SDS011;6359;51.450;7.346;2023-02-04T01:21:39;33.05;;;4.78;;
12587;SDS011;6359;51.450;7.346;2023-02-04T01:24:06;22.08;;;4.15;;
12587;SDS011;6359;51.450;7.346;2023-02-04T01:26:33;33.42;;;5.07;;
12587;SDS011;6359;51.450;7.346;2023-02-04T01:29:00;21.90;;;4.30;;
12587;SDS011;6359;51.450;7.346;2023-02-04T01:31:27;32.40;;;4.88;;
12587;SDS011;6359;51.450;7.346;2023-02-04T01:33:56;24.05;;;4.68;;
12587;SDS011;6359;51.450;7.346;2023-02-04T01:36:25;22.30;;;4.35;;
12587;SDS011;6359;51.450;7.346;2023-02-04T01:38:52;28.17;;;4.40;;
12587;SDS011;6359;51.450;7.346;2023-02-04T01:41:19;23.35;;;4.25;;
12587;SDS011;6359;51.450;7.346;2023-02-04T01:43:46;21.50;;;4.28;;
12587;SDS011;6359;51.450;7.346;2023-02-04T01:46:14;23.60;;;4.63;;
12587;SDS011;6359;51.450;7.346;2023-02-04T01:48:42;29.17;;;5.50;;
12587;SDS011;6359;51.450;7.346;2023-02-04T01:51:10;19.23;;;4.13;;
12587;SDS011;6359;51.450;7.346;2023-02-04T01:53:39;21.50;;;4.80;;
12587;SDS011;6359;51.450;7.346;2023-02-04T01:56:10;21.67;;;4.43;;
12587;SDS011;6359;51.450;7.346;2023-02-04T01:58:42;16.80;;;3.53;;
12587;SDS011;6359;51.450;7.346;2023-02-04T02:01:10;24.92;;;4.25;;
12587;SDS011;6359;51.450;7.346;2023-02-04T02:03:41;22.42;;;3.67;;
12587;SDS011;6359;51.450;7.346;2023-02-04T02:06:08;25.50;;;5.28;;
12587;SDS011;6359;51.450;7.346;2023-02-04T02:08:36;27.95;;;4.18;;
12587;SDS011;6359;51.450;7.346;2023-02-04T02:11:05;28.25;;;3.97;;
12587;SDS011;6359;51.450;7.346;2023-02-04T02:13:32;24.65;;;5.07;;
12587;SDS011;6359;51.450;7.346;2023-02-04T02:15:59;24.23;;;5.22;;
12587;SDS011;6359;51.450;7.346;2023-02-04T02:18:26;24.42;;;4.63;;
12587;SDS011;6359;51.450;7.346;2023-02-04T02:20:53;23.10;;;4.43;;
12587;SDS011;6359;51.450;7.346;2023-02-04T02:23:22;28.33;;;4.50;;
12587;SDS011;6359;51.450;7.346;2023-02-04T02:25:53;24.48;;;4.55;;
12587;SDS011;6359;51.450;7.346;2023-02-04T02:28:21;22.00;;;4.38;;
12587;SDS011;6359;51.450;7.346;2023-02-04T02:30:48;28.00;;;4.10;;
12587;SDS011;6359;51.450;7.346;2023-02-04T02:33:17;25.85;;;5.38;;
12587;SDS011;6359;51.450;7.346;2023-02-04T02:35:46;33.17;;;5.15;;
12587;SDS011;6359;51.450;7.346;2023-02-04T02:38:14;34.22;;;5.53;;
12587;SDS011;6359;51.450;7.346;2023-02-04T02:40:42;25.63;;;4.50;;
12587;SDS011;6359;51.450;7.346;2023-02-04T02:43:12;24.77;;;5.32;;
12587;SDS011;6359;51.450;7.346;2023-02-04T02:45:41;23.42;;;4.45;;
12587;SDS011;6359;51.450;7.346;2023-02-04T02:48:09;22.52;;;4.22;;
12587;SDS011;6359;51.450;7.346;2023-02-04T02:50:37;24.20;;;4.57;;
12587;SDS011;6359;51.450;7.346;2023-02-04T02:53:05;22.70;;;4.03;;
12587;SDS011;6359;51.450;7.346;2023-02-04T02:55:37;25.17;;;4.85;;
12587;SDS011;6359;51.450;7.346;2023-02-04T02:58:04;21.73;;;4.30;;
12587;SDS011;6359;51.450;7.346;2023-02-04T03:00:40;28.92;;;4.63;;
12587;SDS011;6359;51.450;7.346;2023-02-04T03:03:09;20.90;;;4.10;;
12587;SDS011;6359;51.450;7.346;2023-02-04T03:05:40;24.33;;;4.65;;
12587;SDS011;6359;51.450;7.346;2023-02-04T03:08:08;31.50;;;4.68;;
12587;SDS011;6359;51.450;7.346;2023-02-04T03:10:36;28.92;;;4.47;;
12587;SDS011;6359;51.450;7.346;2023-02-04T03:13:03;30.17;;;4.75;;
12587;SDS011;6359;51.450;7.346;2023-02-04T03:15:31;26.80;;;4.63;;
12587;SDS011;6359;51.450;7.346;2023-02-04T03:17:59;32.30;;;4.85;;
12587;SDS011;6359;51.450;7.346;2023-02-04T03:20:28;26.27;;;4.90;;
12587;SDS011;6359;51.450;7.346;2023-02-04T03:22:56;15.65;;;4.20;;
12587;SDS011;6359;51.450;7.346;2023-02-04T03:25:24;26.10;;;5.65;;
12587;SDS011;6359;51.450;7.346;2023-02-04T03:27:52;22.23;;;4.47;;
12587;SDS011;6359;51.450;7.346;2023-02-04T03:30:19;40.40;;;6.18;;
12587;SDS011;6359;51.450;7.346;2023-02-04T03:32:47;29.30;;;5.07;;
12587;SDS011;6359;51.450;7.346;2023-02-04T03:35:16;24.23;;;4.30;;
12587;SDS011;6359;51.450;7.346;2023-02-04T03:37:43;27.63;;;4.97;;
12587;SDS011;6359;51.450;7.346;2023-02-04T03:40:13;32.75;;;4.50;;
12587;SDS011;6359;51.450;7.346;2023-02-04T03:42:41;25.23;;;4.80;;
12587;SDS011;6359;51.450;7.346;2023-02-04T03:45:08;22.40;;;4.47;;
12587;SDS011;6359;51.450;7.346;2023-02-04T03:47:35;32.53;;;5.10;;
12587;SDS011;6359;51.450;7.346;2023-02-04T03:50:02;19.15;;;3.97;;
12587;SDS011;6359;51.450;7.346;2023-02-04T03:52:31;23.20;;;4.65;;
12587;SDS011;6359;51.450;7.346;2023-02-04T03:54:58;19.83;;;3.90;;
12587;SDS011;6359;51.450;7.346;2023-02-04T03:57:25;24.60;;;4.07;;
12587;SDS011;6359;51.450;7.346;2023-02-04T03:59:52;19.88;;;4.47;;
12587;SDS011;6359;51.450;7.346;2023-02-04T04:02:19;23.83;;;4.45;;
12587;SDS011;6359;51.450;7.346;2023-02-04T04:04:46;24.98;;;4.95;;
12587;SDS011;6359;51.450;7.346;2023-02-04T04:07:13;23.38;;;4.13;;
12587;SDS011;6359;51.450;7.346;2023-02-04T04:09:42;35.60;;;5.32;;
12587;SDS011;6359;51.450;7.346;2023-02-04T04:12:09;34.17;;;4.65;;
12587;SDS011;6359;51.450;7.346;2023-02-04T04:14:36;24.98;;;4.50;;
12587;SDS011;6359;51.450;7.346;2023-02-04T04:17:03;25.92;;;4.07;;
12587;SDS011;6359;51.450;7.346;2023-02-04T04:19:31;25.83;;;4.30;;
12587;SDS011;6359;51.450;7.346;2023-02-04T04:21:58;27.25;;;3.90;;
12587;SDS011;6359;51.450;7.346;2023-02-04T04:24:25;24.77;;;4.75;;
12587;SDS011;6359;51.450;7.346;2023-02-04T04:26:53;32.10;;;4.78;;
12587;SDS011;6359;51.450;7.346;2023-02-04T04:29:20;25.83;;;4.70;;
12587;SDS011;6359;51.450;7.346;2023-02-04T04:31:47;26.63;;;4.15;;
12587;SDS011;6359;51.450;7.346;2023-02-04T04:34:14;29.77;;;4.82;;
12587;SDS011;6359;51.450;7.346;2023-02-04T04:36:41;31.73;;;4.45;;
12587;SDS011;6359;51.450;7.346;2023-02-04T04:39:08;33.78;;;5.18;;
12587;SDS011;6359;51.450;7.346;2023-02-04T04:41:35;32.03;;;5.85;;
12587;SDS011;6359;51.450;7.346;2023-02-04T04:44:04;26.83;;;4.43;;
12587;SDS011;6359;51.450;7.346;2023-02-04T04:46:31;22.70;;;4.53;;
12587;SDS011;6359;51.450;7.346;2023-02-04T04:48:58;23.42;;;4.20;;
12587;SDS011;6359;51.450;7.346;2023-02-04T04:51:25;31.05;;;4.68;;
12587;SDS011;6359;51.450;7.346;2023-02-04T04:53:55;25.02;;;4.57;;
12587;SDS011;6359;51.450;7.346;2023-02-04T04:56:23;34.22;;;5.97;;
12587;SDS011;6359;51.450;7.346;2023-02-04T04:58:50;25.15;;;4.88;;
12587;SDS011;6359;51.450;7.346;2023-02-04T05:01:18;32.95;;;4.72;;
12587;SDS011;6359;51.450;7.346;2023-02-04T05:03:46;25.83;;;4.63;;
12587;SDS011;6359;51.450;7.346;2023-02-04T05:06:13;27.65;;;4.88;;
12587;SDS011;6359;51.450;7.346;2023-02-04T05:08:40;33.45;;;5.07;;
12587;SDS011;6359;51.450;7.346;2023-02-04T05:11:07;29.27;;;4.95;;
12587;SDS011;6359;51.450;7.346;2023-02-04T05:13:34;19.30;;;3.88;;
12587;SDS011;6359;51.450;7.346;2023-02-04T05:16:01;21.23;;;4.68;;
12587;SDS011;6359;51.450;7.346;2023-02-04T05:18:30;21.83;;;4.47;;
12587;SDS011;6359;51.450;7.346;2023-02-04T05:20:57;32.67;;;4.90;;
12587;SDS011;6359;51.450;7.346;2023-02-04T05:23:24;27.92;;;5.35;;
12587;SDS011;6359;51.450;7.346;2023-02-04T05:25:51;34.15;;;5.28;;
12587;SDS011;6359;51.450;7.346;2023-02-04T05:28:18;28.05;;;5.03;;
12587;SDS011;6359;51.450;7.346;2023-02-04T05:30:45;31.13;;;5.30;;
12587;SDS011;6359;51.450;7.346;2023-02-04T05:33:12;30.38;;;4.88;;
12587;SDS011;6359;51.450;7.346;2023-02-04T05:35:41;36.13;;;5.03;;
12587;SDS011;6359;51.450;7.346;2023-02-04T05:38:08;30.90;;;4.30;;
12587;SDS011;6359;51.450;7.346;2023-02-04T05:40:35;20.13;;;4.50;;
12587;SDS011;6359;51.450;7.346;2023-02-04T05:43:02;33.00;;;4.63;;
12587;SDS011;6359;51.450;7.346;2023-02-04T05:45:30;34.05;;;5.22;;
12587;SDS011;6359;51.450;7.346;2023-02-04T05:47:57;22.15;;;4.55;;
12587;SDS011;6359;51.450;7.346;2023-02-04T05:50:24;35.05;;;5.18;;
12587;SDS011;6359;51.450;7.346;2023-02-04T05:52:52;26.67;;;4.40;;
12587;SDS011;6359;51.450;7.346;2023-02-04T05:55:20;33.58;;;4.97;;
12587;SDS011;6359;51.450;7.346;2023-02-04T05:57:47;25.58;;;4.78;;
12587;SDS011;6359;51.450;7.346;2023-02-04T06:00:14;23.52;;;4.10;;
12587;SDS011;6359;51.450;7.346;2023-02-04T06:02:41;28.42;;;5.22;;
12587;SDS011;6359;51.450;7.346;2023-02-04T06:05:08;25.58;;;4.53;;
12587;SDS011;6359;51.450;7.346;2023-02-04T06:07:35;25.77;;;4.28;;
12587;SDS011;6359;51.450;7.346;2023-02-04T06:10:04;22.67;;;5.22;;
12587;SDS011;6359;51.450;7.346;2023-02-04T06:12:31;27.85;;;5.13;;
12587;SDS011;6359;51.450;7.346;2023-02-04T06:14:58;27.05;;;4.85;;
12587;SDS011;6359;51.450;7.346;2023-02-04T06:17:25;32.80;;;5.13;;
12587;SDS011;6359;51.450;7.346;2023-02-04T06:19:52;29.17;;;5.40;;
12587;SDS011;6359;51.450;7.346;2023-02-04T06:22:19;25.13;;;4.60;;
12587;SDS011;6359;51.450;7.346;2023-02-04T06:24:48;38.05;;;5.72;;
12587;SDS011;6359;51.450;7.346;2023-02-04T06:27:16;26.17;;;5.47;;
12587;SDS011;6359;51.450;7.346;2023-02-04T06:29:47;28.02;;;5.03;;
12587;SDS011;6359;51.450;7.346;2023-02-04T06:32:14;36.03;;;5.32;;
12587;SDS011;6359;51.450;7.346;2023-02-04T06:34:41;32.17;;;4.38;;
12587;SDS011;6359;51.450;7.346;2023-02-04T06:37:08;23.33;;;5.40;;
12587;SDS011;6359;51.450;7.346;2023-02-04T06:39:35;32.42;;;5.30;;
12587;SDS011;6359;51.450;7.346;2023-02-04T06:42:02;32.67;;;5.03;;
12587;SDS011;6359;51.450;7.346;2023-02-04T06:44:30;22.63;;;5.00;;
12587;SDS011;6359;51.450;7.346;2023-02-04T06:46:57;22.05;;;5.35;;
12587;SDS011;6359;51.450;7.346;2023-02-04T06:49:24;26.98;;;5.28;;
12587;SDS011;6359;51.450;7.346;2023-02-04T06:51:52;36.17;;;5.72;;
12587;SDS011;6359;51.450;7.346;2023-02-04T06:54:19;32.22;;;5.20;;
12587;SDS011;6359;51.450;7.346;2023-02-04T06:56:49;31.15;;;5.13;;
12587;SDS011;6359;51.450;7.346;2023-02-04T06:59:16;25.45;;;4.43;;
12587;SDS011;6359;51.450;7.346;2023-02-04T07:01:45;32.47;;;6.32;;
12587;SDS011;6359;51.450;7.346;2023-02-04T07:04:12;36.00;;;5.60;;
12587;SDS011;6359;51.450;7.346;2023-02-04T07:06:39;26.17;;;4.35;;
12587;SDS011;6359;51.450;7.346;2023-02-04T07:09:07;30.77;;;4.80;;
12587;SDS011;6359;51.450;7.346;2023-02-04T07:11:34;29.63;;;5.00;;
12587;SDS011;6359;51.450;7.346;2023-02-04T07:14:00;35.03;;;5.85;;
12587;SDS011;6359;51.450;7.346;2023-02-04T07:16:28;26.25;;;5.40;;
12587;SDS011;6359;51.450;7.346;2023-02-04T07:18:56;27.42;;;5.22;;
12587;SDS011;6359;51.450;7.346;2023-02-04T07:21:23;28.45;;;5.75;;
12587;SDS011;6359;51.450;7.346;2023-02-04T07:23:51;28.70;;;5.03;;
12587;SDS011;6359;51.450;7.346;2023-02-04T07:26:18;27.52;;;5.22;;
12587;SDS011;6359;51.450;7.346;2023-02-04T07:28:45;33.20;;;5.57;;
12587;SDS011;6359;51.450;7.346;2023-02-04T07:31:13;27.70;;;5.10;;
12587;SDS011;6359;51.450;7.346;2023-02-04T07:33:40;28.55;;;5.05;;
12587;SDS011;6359;51.450;7.346;2023-02-04T07:36:08;31.17;;;5.10;;
12587;SDS011;6359;51.450;7.346;2023-02-04T07:38:36;27.85;;;5.13;;
12587;SDS011;6359;51.450;7.346;2023-02-04T07:41:03;31.17;;;5.55;;
12587;SDS011;6359;51.450;7.346;2023-02-04T07:43:30;27.67;;;4.47;;
12587;SDS011;6359;51.450;7.346;2023-02-04T07:45:57;29.08;;;4.82;;
12587;SDS011;6359;51.450;7.346;2023-02-04T07:48:24;19.67;;;4.72;;
12587;SDS011;6359;51.450;7.346;2023-02-04T07:50:51;23.67;;;4.78;;
12587;SDS011;6359;51.450;7.346;2023-02-04T07:53:19;25.88;;;5.10;;
12587;SDS011;6359;51.450;7.346;2023-02-04T07:55:46;15.88;;;5.03;;
12587;SDS011;6359;51.450;7.346;2023-02-04T07:58:13;28.98;;;6.00;;
12587;SDS011;6359;51.450;7.346;2023-02-04T08:00:40;30.48;;;5.75;;
12587;SDS011;6359;51.450;7.346;2023-02-04T08:03:07;29.98;;;5.95;;
12587;SDS011;6359;51.450;7.346;2023-02-04T08:05:34;19.67;;;5.10;;
12587;SDS011;6359;51.450;7.346;2023-02-04T08:08:02;21.98;;;5.28;;
12587;SDS011;6359;51.450;7.346;2023-02-04T08:10:30;26.17;;;5.15;;
12587;SDS011;6359;51.450;7.346;2023-02-04T08:12:57;26.52;;;5.63;;
12587;SDS011;6359;51.450;7.346;2023-02-04T08:15:24;34.80;;;5.30;;
12587;SDS011;6359;51.450;7.346;2023-02-04T08:17:51;32.45;;;5.03;;
12587;SDS011;6359;51.450;7.346;2023-02-04T08:20:19;23.20;;;5.75;;
12587;SDS011;6359;51.450;7.346;2023-02-04T08:22:46;29.25;;;5.95;;
12587;SDS011;6359;51.450;7.346;2023-02-04T08:25:13;25.45;;;4.90;;
12587;SDS011;6359;51.450;7.346;2023-02-04T08:27:41;24.17;;;4.13;;
12587;SDS011;6359;51.450;7.346;2023-02-04T08:30:09;30.77;;;5.00;;
12587;SDS011;6359;51.450;7.346;2023-02-04T08:32:37;32.70;;;5.20;;
12587;SDS011;6359;51.450;7.346;2023-02-04T08:35:04;31.27;;;5.43;;
12587;SDS011;6359;51.450;7.346;2023-02-04T08:37:32;21.33;;;5.07;;
12587;SDS011;6359;51.450;7.346;2023-02-04T08:40:00;29.30;;;5.45;;
12587;SDS011;6359;51.450;7.346;2023-02-04T08:42:27;24.90;;;4.78;;
12587;SDS011;6359;51.450;7.346;2023-02-04T08:44:56;34.10;;;5.57;;
12587;SDS011;6359;51.450;7.346;2023-02-04T08:47:23;31.88;;;5.65;;
12587;SDS011;6359;51.450;7.346;2023-02-04T08:49:50;28.90;;;5.53;;
12587;SDS011;6359;51.450;7.346;2023-02-04T08:52:17;35.05;;;6.13;;
12587;SDS011;6359;51.450;7.346;2023-02-04T08:54:44;29.63;;;5.50;;
12587;SDS011;6359;51.450;7.346;2023-02-04T08:57:11;34.53;;;4.65;;
12587;SDS011;6359;51.450;7.346;2023-02-04T08:59:38;20.63;;;5.25;;
12587;SDS011;6359;51.450;7.346;2023-02-04T09:02:07;27.67;;;5.53;;
12587;SDS011;6359;51.450;7.346;2023-02-04T09:04:35;28.25;;;5.28;;
12587;SDS011;6359;51.450;7.346;2023-02-04T09:07:02;22.60;;;5.05;;
12587;SDS011;6359;51.450;7.346;2023-02-04T09:09:29;29.10;;;5.72;;
12587;SDS011;6359;51.450;7.346;2023-02-04T09:11:55;32.78;;;5.88;;
12587;SDS011;6359;51.450;7.346;2023-02-04T09:14:22;25.70;;;5.05;;
12587;SDS011;6359;51.450;7.346;2023-02-04T09:16:49;28.52;;;5.28;;
12587;SDS011;6359;51.450;7.346;2023-02-04T09:19:18;41.85;;;6.10;;
12587;SDS011;6359;51.450;7.346;2023-02-04T09:21:49;33.28;;;5.75;;
12587;SDS011;6359;51.450;7.346;2023-02-04T09:24:16;30.15;;;5.68;;
12587;SDS011;6359;51.450;7.346;2023-02-04T09:26:43;32.33;;;6.10;;
12587;SDS011;6359;51.450;7.346;2023-02-04T09:29:10;32.63;;;5.65;;
12587;SDS011;6359;51.450;7.346;2023-02-04T09:31:37;30.88;;;5.40;;
12587;SDS011;6359;51.450;7.346;2023-02-04T09:34:04;39.63;;;6.18;;
12587;SDS011;6359;51.450;7.346;2023-02-04T09:36:32;39.42;;;6.45;;
12587;SDS011;6359;51.450;7.346;2023-02-04T09:39:02;28.38;;;6.97;;
12587;SDS011;6359;51.450;7.346;2023-02-04T09:41:30;26.17;;;5.65;;
12587;SDS011;6359;51.450;7.346;2023-02-04T09:44:00;21.75;;;5.25;;
12587;SDS011;6359;51.450;7.346;2023-02-04T09:46:29;26.23;;;5.45;;
12587;SDS011;6359;51.450;7.346;2023-02-04T09:48:57;30.92;;;6.15;;
12587;SDS011;6359;51.450;7.346;2023-02-04T09:51:26;20.23;;;5.22;;
12587;SDS011;6359;51.450;7.346;2023-02-04T09:54:01;34.83;;;6.07;;
12587;SDS011;6359;51.450;7.346;2023-02-04T09:56:32;35.70;;;6.43;;
12587;SDS011;6359;51.450;7.346;2023-02-04T09:58:59;28.63;;;6.65;;
12587;SDS011;6359;51.450;7.346;2023-02-04T10:01:26;22.65;;;5.15;;
12587;SDS011;6359;51.450;7.346;2023-02-04T10:03:54;26.33;;;5.88;;
12587;SDS011;6359;51.450;7.346;2023-02-04T10:06:26;32.42;;;6.43;;
12587;SDS011;6359;51.450;7.346;2023-02-04T10:08:53;35.22;;;6.38;;
12587;SDS011;6359;51.450;7.346;2023-02-04T10:11:23;24.55;;;6.00;;
12587;SDS011;6359;51.450;7.346;2023-02-04T10:13:52;29.27;;;6.53;;
12587;SDS011;6359;51.450;7.346;2023-02-04T10:16:21;29.83;;;5.90;;
12587;SDS011;6359;51.450;7.346;2023-02-04T10:18:54;30.73;;;6.22;;
12587;SDS011;6359;51.450;7.346;2023-02-04T10:21:23;28.15;;;5.93;;
12587;SDS011;6359;51.450;7.346;2023-02-04T10:23:53;33.15;;;5.85;;
12587;SDS011;6359;51.450;7.346;2023-02-04T10:26:25;26.50;;;5.85;;
12587;SDS011;6359;51.450;7.346;2023-02-04T10:28:57;29.08;;;5.22;;
12587;SDS011;6359;51.450;7.346;2023-02-04T10:31:26;25.33;;;5.57;;
12587;SDS011;6359;51.450;7.346;2023-02-04T10:36:47;33.25;;;5.97;;
12587;SDS011;6359;51.450;7.346;2023-02-04T10:39:16;23.50;;;6.07;;
12587;SDS011;6359;51.450;7.346;2023-02-04T10:41:47;27.25;;;5.70;;
12587;SDS011;6359;51.450;7.346;2023-02-04T10:44:16;38.83;;;5.90;;
12587;SDS011;6359;51.450;7.346;2023-02-04T10:46:45;27.73;;;6.28;;
12587;SDS011;6359;51.450;7.346;2023-02-04T10:49:19;32.92;;;5.35;;
12587;SDS011;6359;51.450;7.346;2023-02-04T10:51:50;30.25;;;7.07;;
12587;SDS011;6359;51.450;7.346;2023-02-04T10:54:18;27.52;;;5.60;;
12587;SDS011;6359;51.450;7.346;2023-02-04T10:56:57;27.90;;;6.18;;
12587;SDS011;6359;51.450;7.346;2023-02-04T10:59:25;29.88;;;5.45;;
12587;SDS011;6359;51.450;7.346;2023-02-04T11:01:53;29.45;;;5.43;;
12587;SDS011;6359;51.450;7.346;2023-02-04T11:04:21;25.02;;;5.72;;
12587;SDS011;6359;51.450;7.346;2023-02-04T11:06:49;28.40;;;5.65;;
12587;SDS011;6359;51.450;7.346;2023-02-04T11:09:17;39.63;;;6.18;;
12587;SDS011;6359;51.450;7.346;2023-02-04T11:11:44;33.72;;;6.28;;
12587;SDS011;6359;51.450;7.346;2023-02-04T11:14:24;27.77;;;5.18;;
12587;SDS011;6359;51.450;7.346;2023-02-04T11:16:53;23.45;;;5.10;;
12587;SDS011;6359;51.450;7.346;2023-02-04T11:19:32;29.67;;;5.88;;
12587;SDS011;6359;51.450;7.346;2023-02-04T11:22:07;24.73;;;6.57;;
12587;SDS011;6359;51.450;7.346;2023-02-04T11:24:48;30.25;;;6.38;;
12587;SDS011;6359;51.450;7.346;2023-02-04T11:27:19;33.22;;;6.30;;
12587;SDS011;6359;51.450;7.346;2023-02-04T11:29:50;36.95;;;7.10;;
12587;SDS011;6359;51.450;7.346;2023-02-04T11:32:29;35.30;;;6.57;;
12587;SDS011;6359;51.450;7.346;2023-02-04T11:37:51;30.05;;;7.20;;
12587;SDS011;6359;51.450;7.346;2023-02-04T11:40:23;24.40;;;5.60;;
12587;SDS011;6359;51.450;7.346;2023-02-04T11:42:55;22.20;;;5.28;;
12587;SDS011;6359;51.450;7.346;2023-02-04T11:45:26;18.23;;;4.63;;
12587;SDS011;6359;51.450;7.346;2023-02-04T11:47:56;23.00;;;5.22;;
12587;SDS011;6359;51.450;7.346;2023-02-04T11:50:27;22.65;;;4.85;;
12587;SDS011;6359;51.450;7.346;2023-02-04T11:52:55;28.33;;;5.53;;
12587;SDS011;6359;51.450;7.346;2023-02-04T11:55:23;24.08;;;6.05;;
12587;SDS011;6359;51.450;7.346;2023-02-04T11:57:50;22.33;;;5.95;;
12587;SDS011;6359;51.450;7.346;2023-02-04T12:00:20;26.08;;;5.53;;
12587;SDS011;6359;51.450;7.346;2023-02-04T12:02:50;19.70;;;4.80;;
12587;SDS011;6359;51.450;7.346;2023-02-04T12:05:28;21.33;;;5.55;;
12587;SDS011;6359;51.450;7.346;2023-02-04T12:08:08;31.38;;;5.93;;
12587;SDS011;6359;51.450;7.346;2023-02-04T12:10:36;18.77;;;5.38;;
12587;SDS011;6359;51.450;7.346;2023-02-04T12:13:10;25.80;;;6.47;;
12587;SDS011;6359;51.450;7.346;2023-02-04T12:15:38;24.02;;;6.38;;
12587;SDS011;6359;51.450;7.346;2023-02-04T12:18:07;25.02;;;6.68;;
12587;SDS011;6359;51.450;7.346;2023-02-04T12:20:36;21.75;;;6.43;;
12587;SDS011;6359;51.450;7.346;2023-02-04T12:23:04;27.83;;;6.95;;
12587;SDS011;6359;51.450;7.346;2023-02-04T12:25:32;24.95;;;7.43;;
12587;SDS011;6359;51.450;7.346;2023-02-04T12:27:59;32.65;;;6.57;;
12587;SDS011;6359;51.450;7.346;2023-02-04T12:30:27;21.20;;;6.40;;
12587;SDS011;6359;51.450;7.346;2023-02-04T12:32:54;29.48;;;7.05;;
12587;SDS011;6359;51.450;7.346;2023-02-04T12:35:22;35.45;;;7.45;;
12587;SDS011;6359;51.450;7.346;2023-02-04T12:37:50;20.45;;;6.25;;
12587;SDS011;6359;51.450;7.346;2023-02-04T12:40:17;23.85;;;6.55;;
12587;SDS011;6359;51.450;7.346;2023-02-04T12:42:45;26.30;;;6.50;;
12587;SDS011;6359;51.450;7.346;2023-02-04T12:45:13;29.05;;;6.97;;
12587;SDS011;6359;51.450;7.346;2023-02-04T12:47:41;31.58;;;7.40;;
12587;SDS011;6359;51.450;7.346;2023-02-04T12:50:09;30.05;;;6.95;;
12587;SDS011;6359;51.450;7.346;2023-02-04T12:52:39;21.83;;;7.03;;
12587;SDS011;6359;51.450;7.346;2023-02-04T12:55:07;27.77;;;6.70;;
12587;SDS011;6359;51.450;7.346;2023-02-04T12:57:34;27.25;;;7.03;;
12587;SDS011;6359;51.450;7.346;2023-02-04T13:00:02;36.58;;;7.82;;
12587;SDS011;6359;51.450;7.346;2023-02-04T13:02:29;27.98;;;7.43;;
12587;SDS011;6359;51.450;7.346;2023-02-04T13:04:56;34.45;;;7.50;;
12587;SDS011;6359;51.450;7.346;2023-02-04T13:07:23;30.25;;;7.50;;
12587;SDS011;6359;51.450;7.346;2023-02-04T13:09:52;25.95;;;7.47;;
12587;SDS011;6359;51.450;7.346;2023-02-04T13:12:19;30.45;;;7.57;;
12587;SDS011;6359;51.450;7.346;2023-02-04T13:14:46;31.35;;;7.88;;
12587;SDS011;6359;51.450;7.346;2023-02-04T13:17:13;35.47;;;8.07;;
12587;SDS011;6359;51.450;7.346;2023-02-04T13:19:39;29.63;;;8.65;;
12587;SDS011;6359;51.450;7.346;2023-02-04T13:22:06;31.23;;;8.68;;
12587;SDS011;6359;51.450;7.346;2023-02-04T13:24:33;26.60;;;8.30;;
12587;SDS011;6359;51.450;7.346;2023-02-04T13:27:02;35.35;;;7.95;;
12587;SDS011;6359;51.450;7.346;2023-02-04T13:29:29;31.83;;;8.82;;
12587;SDS011;6359;51.450;7.346;2023-02-04T13:31:56;27.90;;;7.70;;
12587;SDS011;6359;51.450;7.346;2023-02-04T13:34:23;22.77;;;7.30;;
12587;SDS011;6359;51.450;7.346;2023-02-04T13:36:50;24.75;;;7.50;;
12587;SDS011;6359;51.450;7.346;2023-02-04T13:39:17;28.20;;;6.80;;
12587;SDS011;6359;51.450;7.346;2023-02-04T13:41:44;24.75;;;8.07;;
12587;SDS011;6359;51.450;7.346;2023-02-04T13:44:13;27.92;;;8.02;;
12587;SDS011;6359;51.450;7.346;2023-02-04T13:46:40;27.65;;;6.65;;
12587;SDS011;6359;51.450;7.346;2023-02-04T13:49:07;24.35;;;7.10;;
12587;SDS011;6359;51.450;7.346;2023-02-04T13:51:34;23.17;;;7.07;;
12587;SDS011;6359;51.450;7.346;2023-02-04T13:54:01;30.10;;;7.30;;
12587;SDS011;6359;51.450;7.346;2023-02-04T13:56:28;23.92;;;7.65;;
12587;SDS011;6359;51.450;7.346;2023-02-04T13:58:56;28.35;;;7.43;;
12587;SDS011;6359;51.450;7.346;2023-02-04T14:01:25;35.05;;;6.90;;
12587;SDS011;6359;51.450;7.346;2023-02-04T14:03:52;19.67;;;7.15;;
12587;SDS011;6359;51.450;7.346;2023-02-04T14:06:19;31.95;;;8.18;;
12587;SDS011;6359;51.450;7.346;2023-02-04T14:08:47;28.10;;;7.15;;
12587;SDS011;6359;51.450;7.346;2023-02-04T14:11:14;24.30;;;7.05;;
12587;SDS011;6359;51.450;7.346;2023-02-04T14:13:41;26.15;;;7.15;;
12587;SDS011;6359;51.450;7.346;2023-02-04T14:16:08;26.95;;;7.40;;
12587;SDS011;6359;51.450;7.346;2023-02-04T14:18:36;30.85;;;6.72;;
12587;SDS011;6359;51.450;7.346;2023-02-04T14:21:03;22.33;;;7.32;;
12587;SDS011;6359;51.450;7.346;2023-02-04T14:23:30;23.55;;;7.63;;
12587;SDS011;6359;51.450;7.346;2023-02-04T14:25:57;24.65;;;7.20;;
12587;SDS011;6359;51.450;7.346;2023-02-04T14:28:24;22.90;;;7.40;;
12587;SDS011;6359;51.450;7.346;2023-02-04T14:30:51;24.65;;;6.88;;
12587;SDS011;6359;51.450;7.346;2023-02-04T14:33:19;24.17;;;6.72;;
12587;SDS011;6359;51.450;7.346;2023-02-04T14:35:48;22.45;;;8.10;;
12587;SDS011;6359;51.450;7.346;2023-02-04T14:38:15;22.33;;;7.10;;
12587;SDS011;6359;51.450;7.346;2023-02-04T14:40:42;23.08;;;7.07;;
12587;SDS011;6359;51.450;7.346;2023-02-04T14:43:09;26.77;;;7.40;;
12587;SDS011;6359;51.450;7.346;2023-02-04T14:45:37;24.70;;;7.35;;
12587;SDS011;6359;51.450;7.346;2023-02-04T14:48:04;28.52;;;7.60;;
12587;SDS011;6359;51.450;7.346;2023-02-04T14:50:32;20.60;;;7.20;;
12587;SDS011;6359;51.450;7.346;2023-02-04T14:53:01;24.17;;;7.18;;
12587;SDS011;6359;51.450;7.346;2023-02-04T14:55:28;24.38;;;7.78;;
12587;SDS011;6359;51.450;7.346;2023-02-04T14:57:55;28.50;;;7.97;;
12587;SDS011;6359;51.450;7.346;2023-02-04T15:00:22;26.58;;;8.25;;